Accueil
METAR-TAF:

METAR-TAF

Aéroports :

Base aérienne

Niederstetten, Allemagne

latitude: 49-24N, longitude: 009-58E, altitude: 468 m

Observation

Le bulletin a été fait il y a 29 minutes, à 15:20 UTC
Vent 5 kt de nord-est
Température 25°C
Humidité 28%
Pression 1015 hPa
Visibilité 10 km ou plus
Quelques nuages à une hauteur de 7500 ft
Nuages fragmentés à une hauteur de 34000 ft

METAR: ETHN 021520Z 04005KT 9999 FEW075 BKN340 25/05 Q1015 BLU+BLU+

Heure: 17:49 (15:49 UTC)

Prévision

Le bulletin a été fait il y a 2 heures et 49 minutes, à 13:00 UTC
Prévision valable du 02 à 14 UTC au 02 à 23 UTC
Vent 5 kt de est/nord-est
Visibilité 10 km ou plus
Nuages épars à une hauteur de 23000 ft

TAF: ETHN 021300Z 0214/0223 06005KT 9999 NSW SCT230

Observations et prévisions météorologiques de plus de 4000 aéroports (messages METAR et TAF).

Les stations disponibles sont représentées par des disques jaunes et rouges sur la carte.

Passer la souris dessus pour voir le nom de la station.

Cliquer dessus pour voir les observations et prévisions météorologiques.

Pour changer de carte: cliquez sur les boutons verts avec une croix noire pour zoomer, sur le bouton vert avec un tiret pour effectuer un zoom arrière, ou sur les flèches vertes pour les cartes adjacentes.


METAR-TAF: